createdAt,value
2018-07-13T00:00:27.837Z,99.90
2018-07-13T00:02:57.195Z,99.90
2018-07-13T00:05:26.273Z,99.90
2018-07-13T00:07:55.613Z,99.90
2018-07-13T00:10:24.746Z,99.90
2018-07-13T00:12:53.823Z,99.90
2018-07-13T00:15:23.335Z,99.90
2018-07-13T00:17:52.448Z,99.90
2018-07-13T00:20:21.586Z,99.90
2018-07-13T00:22:51.615Z,99.90
2018-07-13T00:25:20.747Z,99.90
2018-07-13T00:30:18.599Z,99.90
2018-07-13T00:32:47.715Z,99.90
2018-07-13T00:35:16.849Z,99.90
2018-07-13T00:37:46.397Z,99.90
2018-07-13T00:40:15.491Z,99.90
2018-07-13T00:42:44.632Z,99.90
2018-07-13T00:47:42.489Z,99.90
2018-07-13T00:50:12.315Z,99.90
2018-07-13T00:55:10.319Z,99.90
2018-07-13T01:00:08.338Z,99.90
2018-07-13T01:02:37.471Z,99.90
2018-07-13T01:05:06.588Z,99.90
2018-07-13T01:07:35.854Z,99.90
2018-07-13T01:10:04.990Z,99.90
2018-07-13T01:12:34.070Z,99.90
2018-07-13T01:15:03.836Z,99.90
2018-07-13T01:17:32.951Z,99.90
2018-07-13T01:20:02.471Z,99.90
2018-07-13T01:22:32.524Z,99.90
2018-07-13T01:25:01.956Z,99.90
2018-07-13T01:27:31.540Z,99.90
2018-07-13T01:30:00.798Z,99.90
2018-07-13T01:32:29.923Z,99.90
2018-07-13T01:34:59.025Z,99.90
2018-07-13T01:37:28.683Z,99.90
2018-07-13T01:39:57.795Z,99.90
2018-07-13T01:42:27.481Z,99.90
2018-07-13T01:44:57.253Z,99.90
2018-07-13T01:47:26.361Z,99.90
2018-07-13T01:49:55.439Z,99.90
2018-07-13T01:52:25.007Z,99.90
2018-07-13T01:54:54.721Z,99.90
2018-07-13T01:57:24.010Z,99.90
2018-07-13T01:59:53.485Z,99.90
2018-07-13T02:02:22.611Z,99.90
2018-07-13T02:04:51.815Z,99.90
2018-07-13T02:07:21.515Z,99.90
2018-07-13T02:09:53.432Z,99.90
2018-07-13T02:12:24.118Z,99.90
2018-07-13T02:14:53.341Z,99.90
2018-07-13T02:19:51.795Z,99.90
2018-07-13T02:22:20.921Z,99.90
2018-07-13T02:27:19.734Z,99.90
2018-07-13T02:29:48.813Z,99.90
2018-07-13T02:34:46.661Z,99.90
2018-07-13T02:37:15.761Z,99.90
2018-07-13T02:39:44.902Z,99.90
2018-07-13T02:44:42.870Z,99.90
2018-07-13T02:47:11.998Z,99.90
2018-07-13T02:49:42.544Z,99.90
2018-07-13T02:52:12.061Z,99.90
2018-07-13T02:54:41.202Z,99.90
2018-07-13T02:59:39.713Z,99.90
2018-07-13T03:02:08.838Z,99.90
2018-07-13T03:04:38.924Z,99.90
2018-07-13T03:07:08.144Z,99.90
2018-07-13T03:09:37.254Z,99.90
2018-07-13T03:12:06.502Z,99.90
2018-07-13T03:14:35.559Z,99.90
2018-07-13T03:17:04.693Z,99.90
2018-07-13T03:19:34.589Z,99.90
2018-07-13T03:22:03.704Z,99.90
2018-07-13T03:24:32.808Z,99.90
2018-07-13T03:29:31.380Z,99.90
2018-07-13T03:32:00.512Z,99.90
2018-07-13T03:34:29.959Z,99.90
2018-07-13T03:36:59.052Z,99.90
2018-07-13T03:39:28.254Z,99.90
2018-07-13T03:41:57.398Z,99.90
2018-07-13T03:44:27.080Z,99.90
2018-07-13T03:46:56.496Z,99.90
2018-07-13T03:51:54.276Z,99.90
2018-07-13T03:54:23.530Z,99.90
2018-07-13T03:56:53.125Z,99.90
2018-07-13T03:59:22.827Z,99.90
2018-07-13T04:01:52.282Z,99.90
2018-07-13T04:04:21.574Z,99.90
2018-07-13T04:06:50.780Z,99.90
2018-07-13T04:09:20.610Z,99.90
2018-07-13T04:11:50.607Z,99.90
2018-07-13T04:14:20.346Z,99.90
2018-07-13T04:21:47.002Z,99.90
2018-07-13T04:29:16.000Z,99.90
2018-07-13T04:31:45.596Z,99.90
2018-07-13T04:34:14.796Z,99.90
2018-07-13T04:36:43.916Z,99.90
2018-07-13T04:39:13.852Z,99.90
2018-07-13T04:41:42.990Z,99.90
2018-07-13T04:44:12.166Z,99.90
2018-07-13T04:46:41.376Z,99.90
2018-07-13T04:49:10.610Z,99.90
2018-07-13T04:51:39.912Z,99.90
2018-07-13T04:54:09.189Z,99.90
2018-07-13T04:56:38.370Z,99.90
2018-07-13T04:59:07.678Z,99.90
2018-07-13T05:01:36.888Z,99.90
2018-07-13T05:04:06.590Z,99.90
2018-07-13T05:06:36.145Z,99.90
2018-07-13T05:09:07.198Z,99.90
2018-07-13T05:11:36.637Z,99.90
2018-07-13T05:14:05.813Z,99.90
2018-07-13T05:16:35.110Z,99.90
2018-07-13T05:19:04.357Z,99.90
2018-07-13T05:21:34.312Z,99.90
2018-07-13T05:24:03.492Z,99.90
2018-07-13T05:26:32.800Z,99.90
2018-07-13T05:34:00.246Z,99.90
2018-07-13T05:36:29.453Z,99.90
2018-07-13T05:38:59.136Z,99.90
2018-07-13T05:41:28.474Z,99.90
2018-07-13T05:43:57.725Z,99.90
2018-07-13T05:46:26.921Z,99.90
2018-07-13T05:48:56.162Z,99.90
2018-07-13T05:51:25.374Z,99.90
2018-07-13T05:53:54.577Z,99.90
2018-07-13T05:56:24.148Z,99.90
2018-07-13T05:58:53.594Z,99.90
2018-07-13T06:01:23.448Z,99.90
2018-07-13T06:03:52.729Z,99.90
2018-07-13T06:06:21.913Z,99.90
2018-07-13T06:08:51.125Z,99.90
2018-07-13T06:11:20.477Z,99.90
2018-07-13T06:13:49.621Z,99.90
2018-07-13T06:16:18.751Z,99.90
2018-07-13T06:18:48.012Z,99.90
2018-07-13T06:21:17.115Z,99.90
2018-07-13T06:23:46.265Z,99.90
2018-07-13T06:26:15.511Z,99.90
2018-07-13T06:28:44.643Z,99.90
2018-07-13T06:31:13.717Z,99.90
2018-07-13T06:33:42.984Z,99.90
2018-07-13T06:38:41.069Z,99.90
2018-07-13T06:43:39.119Z,99.90
2018-07-13T06:46:08.394Z,99.90
2018-07-13T06:48:37.695Z,99.90
2018-07-13T06:51:06.901Z,99.90
2018-07-13T06:53:36.625Z,99.90
2018-07-13T06:56:05.993Z,99.90
2018-07-13T06:58:46.299Z,99.90
2018-07-13T07:01:15.570Z,99.90
2018-07-13T07:04:53.849Z,99.90
2018-07-13T07:09:54.700Z,99.90
2018-07-13T07:12:46.463Z,99.90
2018-07-13T07:15:15.633Z,99.90
2018-07-13T07:17:45.063Z,99.90
2018-07-13T07:20:14.535Z,99.90
2018-07-13T07:22:44.031Z,99.90
2018-07-13T07:25:13.536Z,99.90
2018-07-13T07:27:42.982Z,99.90
2018-07-13T07:30:12.234Z,99.90
2018-07-13T07:32:41.509Z,99.90
2018-07-13T07:35:11.169Z,99.90
2018-07-13T07:37:40.438Z,99.90
2018-07-13T07:40:09.688Z,99.90
2018-07-13T07:42:38.892Z,99.90
2018-07-13T07:45:09.052Z,99.90
2018-07-13T07:50:07.193Z,99.90
2018-07-13T07:52:36.209Z,99.90
2018-07-13T07:55:05.569Z,99.90
2018-07-13T07:57:34.701Z,99.90
2018-07-13T08:00:04.604Z,99.90
2018-07-13T08:02:33.977Z,99.90
2018-07-13T08:05:03.113Z,99.90
2018-07-13T08:07:32.236Z,99.90
2018-07-13T08:10:01.718Z,99.90
2018-07-13T08:12:30.827Z,99.90
2018-07-13T08:14:59.937Z,99.90
2018-07-13T08:17:29.206Z,99.90
2018-07-13T08:19:58.462Z,99.90
2018-07-13T08:22:44.967Z,99.90
2018-07-13T08:25:14.949Z,99.90
2018-07-13T08:27:49.226Z,99.90
2018-07-13T08:31:21.339Z,99.90
2018-07-13T08:33:50.565Z,99.90
2018-07-13T08:36:19.704Z,99.90
2018-07-13T08:38:49.282Z,99.90
2018-07-13T08:41:18.782Z,99.90
2018-07-13T08:43:47.984Z,99.90
2018-07-13T08:46:17.098Z,99.90
2018-07-13T08:48:46.659Z,99.90
2018-07-13T08:51:15.961Z,99.90
2018-07-13T08:53:45.162Z,99.90
2018-07-13T08:56:15.147Z,99.90
2018-07-13T08:58:44.353Z,99.90
2018-07-13T09:01:13.490Z,99.90
2018-07-13T09:03:42.731Z,99.90
2018-07-13T09:06:11.933Z,99.90
2018-07-13T09:08:41.102Z,99.90
2018-07-13T09:11:10.356Z,99.90
2018-07-13T09:13:39.593Z,99.90
2018-07-13T09:16:08.771Z,99.90
2018-07-13T09:18:38.357Z,99.90
2018-07-13T09:21:07.455Z,99.90
2018-07-13T09:23:36.590Z,99.90
2018-07-13T09:26:05.829Z,99.90
2018-07-13T09:31:03.711Z,99.90
2018-07-13T09:33:33.146Z,99.80
2018-07-13T09:38:31.020Z,99.30
2018-07-13T09:41:00.541Z,98.20
2018-07-13T09:43:29.719Z,97.60
2018-07-13T09:45:58.903Z,97.60
2018-07-13T09:48:28.202Z,98.20
2018-07-13T09:50:57.445Z,98.70
2018-07-13T09:53:26.645Z,99.10
2018-07-13T09:55:56.911Z,98.40
2018-07-13T09:58:34.041Z,98.10
2018-07-13T10:01:08.612Z,98.80
2018-07-13T10:03:37.765Z,97.90
2018-07-13T10:06:07.001Z,98.40
2018-07-13T10:08:36.297Z,96.40
2018-07-13T10:11:05.416Z,96.10
2018-07-13T10:13:34.771Z,97.10
2018-07-13T10:16:04.007Z,97.20
2018-07-13T10:18:33.182Z,97.10
2018-07-13T10:21:02.953Z,96.30
2018-07-13T10:23:32.552Z,96.20
2018-07-13T10:26:05.825Z,96.90
2018-07-13T10:28:37.405Z,95.50
2018-07-13T10:31:06.761Z,95.50
2018-07-13T10:33:37.510Z,94.50
2018-07-13T10:36:08.323Z,94.30
2018-07-13T10:38:37.463Z,94.40
2018-07-13T10:43:35.502Z,92.40
2018-07-13T10:46:04.734Z,92.70
2018-07-13T10:48:33.870Z,91.80
2018-07-13T10:51:04.240Z,91.80
2018-07-13T10:53:33.682Z,91.20
2018-07-13T10:56:03.310Z,90.90
2018-07-13T10:58:32.502Z,89.90
2018-07-13T11:01:01.534Z,89.90
2018-07-13T11:03:30.994Z,87.90
2018-07-13T11:06:00.121Z,86.30
2018-07-13T11:08:29.242Z,86.90
2018-07-13T11:10:58.453Z,84.00
2018-07-13T11:13:27.591Z,83.10
2018-07-13T11:15:56.705Z,80.00
2018-07-13T11:18:25.997Z,79.30
2018-07-13T11:20:55.082Z,78.10
2018-07-13T11:23:25.318Z,75.70
2018-07-13T11:25:54.935Z,75.40
2018-07-13T11:28:24.035Z,74.00
2018-07-13T11:30:53.139Z,69.00
2018-07-13T11:33:22.384Z,70.40
2018-07-13T11:35:51.488Z,69.30
2018-07-13T11:38:20.649Z,68.30
2018-07-13T11:40:49.834Z,68.80
2018-07-13T11:45:47.774Z,68.00
2018-07-13T11:48:17.412Z,65.20
2018-07-13T11:50:46.582Z,63.70
2018-07-13T11:53:15.744Z,64.40
2018-07-13T11:58:14.686Z,59.80
2018-07-13T12:00:43.802Z,61.10
2018-07-13T12:03:13.058Z,61.40
2018-07-13T12:05:42.144Z,62.60
2018-07-13T12:08:11.241Z,64.70
2018-07-13T12:10:40.436Z,63.60
2018-07-13T12:13:09.533Z,58.10
2018-07-13T12:15:38.675Z,58.20
2018-07-13T12:18:13.392Z,58.90
2018-07-13T12:20:42.537Z,61.00
2018-07-13T12:23:11.662Z,60.70
2018-07-13T12:28:09.588Z,59.20
2018-07-13T12:30:38.722Z,61.40
2018-07-13T12:35:36.602Z,56.30
2018-07-13T12:38:05.869Z,58.50
2018-07-13T12:40:35.051Z,56.40
2018-07-13T12:43:04.174Z,55.90
2018-07-13T12:45:33.522Z,55.40
2018-07-13T12:48:02.928Z,56.20
2018-07-13T12:50:32.109Z,54.00
2018-07-13T12:53:01.273Z,51.70
2018-07-13T12:55:30.732Z,51.70
2018-07-13T12:58:00.022Z,53.50
2018-07-13T13:00:29.222Z,57.30
2018-07-13T13:02:58.522Z,53.90
2018-07-13T13:05:27.817Z,53.90
2018-07-13T13:07:56.984Z,56.20
2018-07-13T13:10:26.116Z,54.00
2018-07-13T13:12:55.320Z,54.10
2018-07-13T13:15:24.499Z,52.50
2018-07-13T13:17:53.543Z,53.40
2018-07-13T13:20:23.540Z,55.10
2018-07-13T13:22:52.656Z,55.20
2018-07-13T13:25:21.786Z,54.20
2018-07-13T13:27:50.968Z,52.50
2018-07-13T13:32:48.786Z,52.50
2018-07-13T13:35:18.074Z,53.50
2018-07-13T13:37:47.191Z,52.40
2018-07-13T13:40:16.337Z,53.90
2018-07-13T13:42:45.466Z,55.00
2018-07-13T13:45:14.581Z,53.30
2018-07-13T13:47:43.969Z,53.60
2018-07-13T13:50:13.214Z,54.30
2018-07-13T13:52:42.327Z,50.60
2018-07-13T13:55:11.434Z,50.40
2018-07-13T13:57:40.689Z,48.90
2018-07-13T14:00:09.786Z,50.00
2018-07-13T14:02:38.897Z,49.50
2018-07-13T14:05:08.258Z,48.10
2018-07-13T14:07:37.392Z,47.80
2018-07-13T14:10:06.568Z,48.80
2018-07-13T14:12:35.875Z,48.70
2018-07-13T14:15:05.044Z,51.00
2018-07-13T14:17:34.202Z,50.60
2018-07-13T14:22:33.202Z,50.80
2018-07-13T14:27:32.107Z,48.60
2018-07-13T14:34:58.926Z,50.20
2018-07-13T14:37:28.153Z,49.80
2018-07-13T14:39:57.283Z,51.00
2018-07-13T14:44:55.270Z,50.50
2018-07-13T14:49:54.038Z,48.70
2018-07-13T14:52:23.257Z,50.00
2018-07-13T14:57:21.284Z,50.60
2018-07-13T14:59:50.376Z,49.10
2018-07-13T15:02:19.523Z,50.00
2018-07-13T15:04:48.988Z,49.10
2018-07-13T15:07:18.188Z,50.80
2018-07-13T15:09:47.304Z,49.20
2018-07-13T15:12:16.912Z,49.80
2018-07-13T15:14:46.111Z,48.20
2018-07-13T15:17:15.226Z,47.40
2018-07-13T15:19:44.581Z,49.00
2018-07-13T15:22:13.715Z,49.70
2018-07-13T15:24:42.893Z,50.10
2018-07-13T15:27:12.065Z,48.80
2018-07-13T15:29:41.275Z,47.50
2018-07-13T15:32:10.487Z,48.30
2018-07-13T15:34:39.647Z,49.00
2018-07-13T15:37:08.761Z,50.90
2018-07-13T15:39:38.487Z,48.90
2018-07-13T15:42:07.988Z,49.80
2018-07-13T15:44:37.212Z,48.60
2018-07-13T15:47:06.348Z,48.50
2018-07-13T15:49:35.620Z,49.40
2018-07-13T15:52:05.292Z,51.20
2018-07-13T15:54:35.682Z,51.50
2018-07-13T15:59:33.822Z,51.50
2018-07-13T16:02:02.942Z,51.40
2018-07-13T16:04:32.204Z,50.40
2018-07-13T16:07:01.682Z,49.90
2018-07-13T16:09:30.841Z,48.60
2018-07-13T16:12:00.269Z,49.10
2018-07-13T16:14:29.448Z,50.30
2018-07-13T16:19:27.450Z,49.20
2018-07-13T16:24:25.977Z,49.60
2018-07-13T16:26:55.170Z,49.90
2018-07-13T16:29:26.089Z,51.40
2018-07-13T16:31:55.235Z,49.80
2018-07-13T16:34:24.507Z,49.20
2018-07-13T16:36:53.689Z,49.70
2018-07-13T16:39:22.814Z,50.20
2018-07-13T16:41:52.488Z,48.70
2018-07-13T16:44:21.591Z,47.90
2018-07-13T16:46:50.704Z,47.50
2018-07-13T16:49:19.890Z,49.60
2018-07-13T16:51:49.633Z,50.10
2018-07-13T16:54:18.866Z,50.50
2018-07-13T16:59:17.738Z,51.10
2018-07-13T17:01:46.891Z,50.10
2018-07-13T17:04:16.137Z,50.40
2018-07-13T17:06:45.367Z,50.40
2018-07-13T17:11:43.187Z,49.90
2018-07-13T17:14:12.495Z,51.00
2018-07-13T17:16:41.681Z,51.40
2018-07-13T17:19:10.829Z,50.60
2018-07-13T17:21:40.095Z,50.10
2018-07-13T17:24:09.215Z,49.60
2018-07-13T17:26:38.871Z,49.80
2018-07-13T17:29:08.905Z,48.80
2018-07-13T17:31:38.129Z,49.30
2018-07-13T17:34:07.411Z,50.60
2018-07-13T17:36:36.607Z,51.30
2018-07-13T17:39:06.331Z,52.20
2018-07-13T17:41:35.563Z,52.30
2018-07-13T17:44:06.124Z,51.60
2018-07-13T17:46:35.285Z,52.10
2018-07-13T17:49:04.394Z,52.40
2018-07-13T17:54:02.923Z,53.70
2018-07-13T17:56:32.296Z,53.70
2018-07-13T17:59:01.575Z,52.70
2018-07-13T18:03:59.343Z,52.80
2018-07-13T18:06:28.581Z,50.40
2018-07-13T18:08:57.713Z,50.30
2018-07-13T18:11:27.226Z,50.40
2018-07-13T18:13:56.531Z,50.70
2018-07-13T18:16:25.685Z,52.10
2018-07-13T18:18:54.823Z,52.30
2018-07-13T18:21:24.365Z,51.40
2018-07-13T18:28:51.321Z,55.70
2018-07-13T18:31:20.471Z,56.10
2018-07-13T18:33:49.626Z,56.50
2018-07-13T18:38:49.533Z,58.40
2018-07-13T18:43:47.313Z,61.50
2018-07-13T18:46:16.406Z,63.10
2018-07-13T18:48:45.516Z,62.90
2018-07-13T18:51:15.013Z,63.00
2018-07-13T18:53:44.110Z,63.60
2018-07-13T18:56:13.222Z,63.40
2018-07-13T18:58:42.508Z,63.50
2018-07-13T19:01:11.589Z,65.40
2018-07-13T19:03:40.690Z,64.50
2018-07-13T19:06:10.078Z,63.00
2018-07-13T19:08:39.308Z,64.00
2018-07-13T19:11:08.558Z,64.80
2018-07-13T19:13:37.850Z,64.40
2018-07-13T19:16:06.909Z,64.50
2018-07-13T19:21:04.813Z,66.60
2018-07-13T19:23:33.931Z,66.20
2018-07-13T19:26:05.089Z,65.80
2018-07-13T19:28:34.391Z,66.60
2018-07-13T19:31:03.550Z,67.50
2018-07-13T19:36:01.999Z,67.10
2018-07-13T19:38:31.085Z,67.50
2018-07-13T19:41:00.385Z,68.30
2018-07-13T19:43:29.501Z,66.80
2018-07-13T19:45:58.654Z,67.10
2018-07-13T19:48:27.875Z,68.00
2018-07-13T19:50:56.964Z,68.20
2018-07-13T19:53:26.093Z,68.80
2018-07-13T19:55:55.457Z,67.20
2018-07-13T19:58:24.576Z,66.50
2018-07-13T20:00:53.805Z,68.70
2018-07-13T20:03:23.926Z,71.60
2018-07-13T20:05:53.067Z,72.10
2018-07-13T20:08:22.181Z,72.70
2018-07-13T20:10:51.447Z,74.20
2018-07-13T20:13:20.591Z,75.40
2018-07-13T20:15:49.677Z,75.80
2018-07-13T20:18:18.899Z,75.30
2018-07-13T20:20:48.695Z,74.90
2018-07-13T20:23:17.793Z,76.00
2018-07-13T20:25:47.116Z,75.10
2018-07-13T20:28:16.254Z,76.20
2018-07-13T20:30:45.353Z,76.30
2018-07-13T20:33:14.636Z,76.20
2018-07-13T20:35:43.753Z,77.00
2018-07-13T20:38:12.916Z,77.80
2018-07-13T20:40:42.171Z,78.00
2018-07-13T20:43:11.281Z,78.20
2018-07-13T20:45:40.520Z,78.10
2018-07-13T20:48:09.642Z,78.60
2018-07-13T20:50:38.779Z,79.20
2018-07-13T20:53:08.164Z,78.80
2018-07-13T20:55:37.320Z,79.50
2018-07-13T20:58:06.516Z,80.00
2018-07-13T21:00:35.792Z,78.60
2018-07-13T21:05:33.717Z,82.40
2018-07-13T21:08:02.986Z,82.00
2018-07-13T21:10:32.164Z,83.00
2018-07-13T21:13:01.715Z,82.90
2018-07-13T21:15:30.974Z,81.70
2018-07-13T21:18:00.168Z,82.20
2018-07-13T21:20:29.234Z,82.40
2018-07-13T21:22:58.597Z,83.90
2018-07-13T21:25:27.686Z,84.60
2018-07-13T21:27:56.782Z,86.70
2018-07-13T21:30:25.995Z,86.60
2018-07-13T21:32:55.077Z,86.30
2018-07-13T21:35:24.241Z,86.30
2018-07-13T21:37:53.856Z,85.60
2018-07-13T21:40:22.973Z,86.20
2018-07-13T21:42:52.182Z,86.40
2018-07-13T21:45:22.055Z,86.20
2018-07-13T21:50:19.788Z,86.00
2018-07-13T21:52:49.283Z,85.70
2018-07-13T21:55:18.442Z,85.90
2018-07-13T21:57:47.625Z,87.70
2018-07-13T22:00:16.945Z,88.90
2018-07-13T22:02:46.039Z,88.70
2018-07-13T22:05:15.351Z,88.50
2018-07-13T22:07:44.557Z,88.30
2018-07-13T22:10:13.703Z,88.00
2018-07-13T22:12:42.820Z,87.10
2018-07-13T22:15:12.028Z,88.40
2018-07-13T22:17:41.211Z,89.20
2018-07-13T22:20:10.383Z,89.70
2018-07-13T22:25:08.687Z,90.30
2018-07-13T22:27:37.801Z,91.00
2018-07-13T22:30:07.218Z,91.50
2018-07-13T22:32:36.359Z,91.20
2018-07-13T22:35:05.537Z,91.40
2018-07-13T22:37:35.161Z,91.20
2018-07-13T22:40:04.389Z,91.30
2018-07-13T22:42:33.469Z,91.30
2018-07-13T22:47:31.503Z,91.20
2018-07-13T22:50:00.609Z,91.60
2018-07-13T22:52:30.023Z,91.30
2018-07-13T22:54:59.109Z,91.80
2018-07-13T22:57:28.256Z,92.20
2018-07-13T22:59:57.641Z,92.40
2018-07-13T23:02:26.698Z,92.40
2018-07-13T23:04:55.823Z,92.50
2018-07-13T23:07:25.566Z,92.30
2018-07-13T23:12:23.281Z,93.20
2018-07-13T23:14:52.642Z,93.90
2018-07-13T23:17:21.699Z,93.90
2018-07-13T23:19:50.797Z,93.60
2018-07-13T23:22:20.412Z,94.10
2018-07-13T23:24:49.495Z,94.00
2018-07-13T23:27:18.605Z,94.20
2018-07-13T23:29:47.935Z,94.70
2018-07-13T23:32:17.029Z,95.10
2018-07-13T23:34:46.126Z,94.90
2018-07-13T23:37:15.555Z,94.00
2018-07-13T23:39:44.651Z,94.40
2018-07-13T23:42:13.957Z,94.40
2018-07-13T23:44:43.462Z,94.70
2018-07-13T23:47:13.259Z,94.00
2018-07-13T23:49:42.319Z,94.00
2018-07-13T23:52:11.424Z,94.10
2018-07-13T23:54:40.723Z,95.40
